Time;durP1;ratioP1;P1;durP2;ratioP2;P2;SDS_P1;SDS_P2;PMS_P1;PMS_P2;Temp;Humidity;BMP_temperature;BMP_pressure;BME280_temperature;BME280_humidity;BME280_pressure;Samples;Min_cycle;Max_cycle;Signal;HPM_P1;HPM_P2
2022/06/14 00:01:54;;;;;;;8.07;4.20;;;;;;;16.44;73.77;99939.69;5034940;28;20184;-80
2022/06/14 00:04:21;;;;;;;5.63;3.90;;;;;;;16.35;72.79;99935.81;5034794;28;20206;-81
2022/06/14 00:06:48;;;;;;;5.18;3.58;;;;;;;16.35;72.82;99943.06;5034758;28;20562;-78
2022/06/14 00:09:14;;;;;;;5.88;3.70;;;;;;;16.41;72.08;99940.75;5034323;28;20197;-78
2022/06/14 00:11:42;;;;;;;5.30;3.97;;;;;;;16.43;71.90;99938.78;5034677;28;20630;-79
2022/06/14 00:14:11;;;;;;;9.07;4.47;;;;;;;16.27;72.43;99933.66;5034173;28;20198;-80
2022/06/14 00:16:39;;;;;;;9.60;4.40;;;;;;;16.23;72.60;99936.72;5034651;28;20186;-81
2022/06/14 00:19:06;;;;;;;5.78;4.03;;;;;;;16.03;73.93;99936.41;5034652;28;20670;-80
2022/06/14 00:21:34;;;;;;;4.68;3.65;;;;;;;16.11;74.21;99935.81;5034480;28;20245;-80
2022/06/14 00:24:01;;;;;;;4.68;3.95;;;;;;;16.10;74.43;99936.81;5034906;28;20293;-78
2022/06/14 00:26:28;;;;;;;9.95;4.80;;;;;;;16.15;74.15;99940.03;5033169;28;20205;-79
2022/06/14 00:28:55;;;;;;;7.07;4.38;;;;;;;16.01;74.95;99934.81;5033930;28;20230;-79
2022/06/14 00:31:23;;;;;;;5.65;3.80;;;;;;;16.05;73.46;99939.00;5024751;28;20191;-79
2022/06/14 00:33:52;;;;;;;4.47;3.63;;;;;;;16.19;72.76;99935.22;5014345;28;20281;-80
2022/06/14 00:36:24;;;;;;;5.60;3.70;;;;;;;16.16;72.71;99941.75;5014518;28;20194;-79
2022/06/14 00:38:51;;;;;;;4.50;3.70;;;;;;;16.02;73.44;99941.94;5014342;28;20636;-79
2022/06/14 00:41:28;;;;;;;5.25;4.63;;;;;;;16.19;72.71;99929.78;5014257;28;20281;-80
2022/06/14 00:43:55;;;;;;;7.55;3.42;;;;;;;16.13;73.93;99933.00;5014312;28;20534;-80
2022/06/14 00:46:24;;;;;;;3.83;3.53;;;;;;;16.32;73.06;99930.59;5013781;28;20391;-79
2022/06/14 00:49:00;;;;;;;7.40;3.60;;;;;;;16.30;70.45;99934.41;5013625;28;20274;-80
2022/06/14 00:51:30;;;;;;;7.10;3.97;;;;;;;16.14;72.02;99930.13;5014005;28;20241;-80
2022/06/14 00:54:04;;;;;;;5.88;4.30;;;;;;;15.95;74.80;99929.81;5014546;28;20916;-79
2022/06/14 00:56:35;;;;;;;6.38;4.85;;;;;;;15.87;75.02;99926.81;5014178;28;20197;-80
2022/06/14 00:59:09;;;;;;;5.95;3.70;;;;;;;15.77;75.14;99929.34;5013863;28;20277;-79
2022/06/14 01:01:39;;;;;;;7.32;4.03;;;;;;;15.73;76.01;99922.41;5013604;28;20274;-79
2022/06/14 01:04:12;;;;;;;7.38;3.50;;;;;;;15.64;76.69;99921.19;5013707;28;20218;-79
2022/06/14 01:06:47;;;;;;;6.20;3.60;;;;;;;15.63;75.20;99914.91;5013925;28;20665;-80
2022/06/14 01:09:20;;;;;;;3.83;3.40;;;;;;;15.72;74.28;99917.97;5013918;28;20190;-80
2022/06/14 01:11:50;;;;;;;4.10;3.22;;;;;;;15.63;75.61;99922.19;5014001;28;20187;-80
2022/06/14 01:14:20;;;;;;;4.75;2.97;;;;;;;15.58;74.31;99914.41;5013490;28;20226;-80
2022/06/14 01:16:47;;;;;;;3.55;3.03;;;;;;;15.54;76.29;99915.59;5013529;28;20199;-78
2022/06/14 01:19:20;;;;;;;3.83;3.00;;;;;;;15.49;76.34;99915.06;5013313;28;20281;-79
2022/06/14 01:21:54;;;;;;;8.15;3.40;;;;;;;15.56;76.24;99919.06;5013215;28;20190;-80
2022/06/14 01:24:22;;;;;;;5.40;2.88;;;;;;;15.70;76.12;99925.31;5013106;28;20210;-79
2022/06/14 01:26:49;;;;;;;4.10;3.55;;;;;;;15.62;74.99;99921.34;5014589;28;20193;-79
2022/06/14 01:29:18;;;;;;;4.18;2.50;;;;;;;15.63;74.50;99920.34;5013353;28;20313;-82
2022/06/14 01:31:47;;;;;;;3.50;2.90;;;;;;;15.56;74.42;99924.50;5026162;28;20304;-80
2022/06/14 01:34:14;;;;;;;3.80;2.95;;;;;;;15.51;74.87;99914.94;5032915;28;20284;-81
2022/06/14 01:36:42;;;;;;;5.45;3.00;;;;;;;15.38;76.05;99920.44;5033003;28;20675;-80
2022/06/14 01:39:14;;;;;;;4.20;2.80;;;;;;;15.38;77.32;99923.13;5033160;28;20681;-79
2022/06/14 01:41:56;;;;;;;3.85;3.00;;;;;;;15.44;76.30;99925.38;5032945;28;20206;-79
2022/06/14 01:44:33;;;;;;;5.95;3.30;;;;;;;15.20;78.22;99919.91;5032949;28;20216;-77
2022/06/14 01:47:20;;;;;;;3.63;3.00;;;;;;;15.25;78.80;99916.88;5032669;28;20186;-80
2022/06/14 01:52:54;;;;;;;4.38;3.40;;;;;;;15.14;79.28;99909.50;5032896;28;20189;-80
2022/06/14 01:55:28;;;;;;;3.90;2.95;;;;;;;14.97;80.55;99916.16;5032709;28;20186;-78
2022/06/14 01:58:03;;;;;;;4.47;3.67;;;;;;;14.92;82.46;99908.31;5032716;28;20664;-79
2022/06/14 02:00:34;;;;;;;4.50;3.28;;;;;;;14.85;82.77;99917.84;5032601;28;20197;-80
2022/06/14 02:06:01;;;;;;;4.35;3.85;;;;;;;14.64;84.74;99914.81;5032368;28;20217;-78
2022/06/14 02:08:33;;;;;;;6.38;3.13;;;;;;;14.77;83.77;99912.13;5032359;28;20222;-78
2022/06/14 02:11:11;;;;;;;3.47;3.17;;;;;;;14.88;83.19;99908.63;5032368;28;20190;-80
2022/06/14 02:13:46;;;;;;;4.60;3.47;;;;;;;14.69;82.53;99907.22;5032558;28;20264;-79
2022/06/14 02:16:18;;;;;;;4.75;2.85;;;;;;;14.71;82.36;99908.00;5032590;28;20185;-79
2022/06/14 02:18:51;;;;;;;5.35;3.00;;;;;;;14.85;82.08;99903.44;5032041;28;20272;-79
2022/06/14 02:21:24;;;;;;;4.82;3.05;;;;;;;14.83;82.46;99908.97;5032131;28;20185;-80
2022/06/14 02:23:58;;;;;;;4.13;3.03;;;;;;;14.88;81.57;99906.81;5032274;28;20190;-79
2022/06/14 02:26:30;;;;;;;4.05;3.40;;;;;;;14.66;82.58;99902.03;5032423;28;20281;-78
2022/06/14 02:29:05;;;;;;;6.90;3.05;;;;;;;14.52;84.09;99902.13;5031851;28;20234;-79
2022/06/14 02:31:37;;;;;;;5.25;3.03;;;;;;;14.48;84.30;99904.16;5024993;28;20220;-78
2022/06/14 02:34:09;;;;;;;6.10;3.40;;;;;;;14.54;84.54;99905.56;5026640;28;20225;-79
2022/06/14 02:36:41;;;;;;;6.68;3.28;;;;;;;14.45;84.78;99909.81;5032449;28;20616;-78
2022/06/14 02:39:13;;;;;;;7.78;3.40;;;;;;;14.62;85.20;99900.50;5032122;28;20276;-78
2022/06/14 02:41:48;;;;;;;3.50;3.20;;;;;;;14.72;83.60;99904.34;5032092;28;20537;-79
2022/06/14 02:44:19;;;;;;;5.82;3.80;;;;;;;14.70;83.50;99900.84;5031622;28;20223;-79
2022/06/14 02:46:51;;;;;;;6.10;3.60;;;;;;;14.51;84.31;99906.66;5032123;28;20260;-79
2022/06/14 02:49:25;;;;;;;5.65;3.53;;;;;;;14.57;84.23;99899.97;5031703;28;20185;-80
2022/06/14 02:52:01;;;;;;;5.20;3.75;;;;;;;14.55;84.19;99901.94;5031805;28;20281;-80
2022/06/14 02:54:32;;;;;;;4.38;3.53;;;;;;;14.53;84.10;99903.84;5031898;28;20680;-80
2022/06/14 02:57:05;;;;;;;3.53;3.10;;;;;;;14.51;83.49;99897.66;5032005;28;20687;-79
2022/06/14 02:59:36;;;;;;;3.83;2.70;;;;;;;14.44;84.04;99893.66;5031894;28;20197;-79
2022/06/14 03:02:08;;;;;;;3.85;3.38;;;;;;;14.33;86.29;99897.09;5032053;28;20329;-78
2022/06/14 03:04:40;;;;;;;7.47;3.28;;;;;;;14.18;88.52;99907.16;5031753;28;20571;-79
2022/06/14 03:07:12;;;;;;;4.68;3.30;;;;;;;14.02;90.55;99903.72;5031976;28;20605;-80
2022/06/14 03:09:41;;;;;;;4.68;2.95;;;;;;;14.03;89.55;99900.94;5033092;28;20676;-80
2022/06/14 03:12:19;;;;;;;3.55;3.10;;;;;;;14.08;89.63;99903.31;5031785;28;20184;-80
2022/06/14 03:15:01;;;;;;;4.05;3.10;;;;;;;14.03;89.92;99905.47;5031805;28;20275;-79
2022/06/14 03:17:35;;;;;;;3.60;3.03;;;;;;;14.21;88.69;99893.38;5031807;28;20688;-80
2022/06/14 03:20:09;;;;;;;8.30;3.35;;;;;;;14.17;89.30;99889.16;5031743;28;20195;-79
2022/06/14 03:22:44;;;;;;;3.88;3.58;;;;;;;14.09;89.69;99894.25;5031803;28;20539;-78
2022/06/14 03:25:18;;;;;;;3.67;3.33;;;;;;;13.93;91.64;99897.13;5031139;28;20211;-81
2022/06/14 03:27:52;;;;;;;3.97;3.05;;;;;;;14.00;90.73;99898.44;5031674;28;20232;-81
2022/06/14 03:30:21;;;;;;;5.95;2.80;;;;;;;13.83;92.50;99887.88;5031313;28;20198;-80
2022/06/14 03:32:58;;;;;;;6.13;3.60;;;;;;;14.05;91.17;99898.13;5031047;28;20295;-81
2022/06/14 03:35:29;;;;;;;3.65;3.00;;;;;;;14.07;89.97;99899.75;5031552;28;20189;-79
2022/06/14 03:38:00;;;;;;;5.47;3.42;;;;;;;13.91;91.46;99904.47;5031527;28;20191;-80
2022/06/14 03:40:27;;;;;;;3.47;3.00;;;;;;;13.92;90.11;99907.06;5031535;28;20529;-79
2022/06/14 03:42:55;;;;;;;3.65;3.10;;;;;;;13.90;90.72;99898.16;5031536;28;20193;-81
2022/06/14 03:45:26;;;;;;;4.55;3.38;;;;;;;13.84;90.45;99912.13;5031399;28;20747;-80
2022/06/14 03:47:53;;;;;;;5.25;3.67;;;;;;;13.97;89.48;99910.34;5031549;28;20527;-80
2022/06/14 03:50:24;;;;;;;10.30;3.65;;;;;;;13.92;89.18;99907.06;5030988;28;20205;-80
2022/06/14 03:53:15;;;;;;;7.28;3.40;;;;;;;14.17;88.42;99903.56;5031304;28;20189;-78
2022/06/14 03:55:51;;;;;;;4.45;3.22;;;;;;;14.28;87.44;99910.09;5031008;28;20280;-80
2022/06/14 03:58:38;;;;;;;4.85;3.50;;;;;;;14.33;86.33;99888.97;5031243;28;20200;-80
2022/06/14 04:01:13;;;;;;;8.13;4.13;;;;;;;14.22;87.54;99897.81;5032261;28;20614;-78
2022/06/14 04:03:58;;;;;;;7.22;4.13;;;;;;;14.26;86.71;99895.78;5035258;28;20273;-79
2022/06/14 04:06:36;;;;;;;6.75;3.70;;;;;;;14.25;86.10;99903.03;5034293;28;20213;-79
2022/06/14 04:09:16;;;;;;;6.63;3.90;;;;;;;14.06;89.23;99895.28;5034422;28;20282;-79
2022/06/14 04:11:51;;;;;;;6.05;3.60;;;;;;;13.92;90.45;99896.22;5034559;28;20283;-79
2022/06/14 04:14:34;;;;;;;5.90;3.17;;;;;;;13.96;90.41;99902.31;5015690;28;20204;-80
2022/06/14 04:17:15;;;;;;;3.40;3.10;;;;;;;14.02;90.25;99896.50;5013692;28;20308;-80
2022/06/14 04:19:55;;;;;;;3.92;3.58;;;;;;;14.07;88.54;99898.91;5014729;28;20197;-79
2022/06/14 04:22:27;;;;;;;8.00;3.92;;;;;;;14.14;86.56;99901.06;5014259;28;20293;-81
2022/06/14 04:24:59;;;;;;;5.70;3.53;;;;;;;14.10;87.85;99898.66;5014106;28;20210;-81
2022/06/14 04:27:36;;;;;;;6.15;3.08;;;;;;;14.06;87.98;99903.41;5014268;28;20320;-80
2022/06/14 04:30:11;;;;;;;5.93;3.97;;;;;;;14.17;87.51;99905.41;5014028;28;20229;-78
2022/06/14 04:32:45;;;;;;;4.68;3.15;;;;;;;14.27;86.16;99903.81;5034200;28;20213;-79
2022/06/14 04:35:18;;;;;;;5.05;3.70;;;;;;;14.31;85.20;99905.34;5034245;28;20275;-78
2022/06/14 04:37:48;;;;;;;6.53;3.53;;;;;;;14.20;85.80;99899.78;5033800;28;20226;-80
2022/06/14 04:40:19;;;;;;;4.43;3.30;;;;;;;14.20;84.88;99905.22;5034168;28;20275;-79
2022/06/14 04:42:51;;;;;;;6.63;3.20;;;;;;;14.08;85.31;99895.19;5033950;28;20272;-78
2022/06/14 04:45:22;;;;;;;6.05;3.95;;;;;;;14.19;85.95;99900.75;5034483;28;20923;-79
2022/06/14 04:47:54;;;;;;;5.50;3.85;;;;;;;14.48;84.14;99898.75;5033492;28;20280;-80
2022/06/14 04:50:23;;;;;;;4.32;3.28;;;;;;;14.44;83.21;99890.94;5034038;28;20623;-80
2022/06/14 04:52:54;;;;;;;5.28;3.60;;;;;;;14.38;83.84;99893.09;5034093;28;20268;-79
2022/06/14 04:55:24;;;;;;;5.10;3.42;;;;;;;14.32;84.73;99895.38;5033418;28;20184;-79
2022/06/14 04:57:56;;;;;;;8.05;3.60;;;;;;;14.24;85.39;99890.47;5034009;28;20273;-79
2022/06/14 05:00:28;;;;;;;7.60;4.40;;;;;;;14.39;84.75;99897.53;5033657;28;20186;-78
2022/06/14 05:03:00;;;;;;;5.95;3.45;;;;;;;14.44;84.06;99896.34;5033314;28;20190;-79
2022/06/14 05:05:32;;;;;;;4.47;3.00;;;;;;;14.75;81.52;99895.97;5028884;28;20384;-79
2022/06/14 05:08:05;;;;;;;5.40;4.50;;;;;;;14.88;80.07;99897.78;5033347;28;20198;-78
2022/06/14 05:10:37;;;;;;;6.60;3.90;;;;;;;15.16;78.98;99897.56;5029932;28;20190;-79
2022/06/14 05:13:12;;;;;;;4.80;3.55;;;;;;;15.21;78.67;99887.22;5013159;28;20210;-79
2022/06/14 05:15:46;;;;;;;8.75;5.03;;;;;;;15.37;77.75;99897.81;5012913;28;20185;-79
2022/06/14 05:18:19;;;;;;;4.53;3.60;;;;;;;15.59;75.35;99888.13;5013931;28;20191;-78
2022/06/14 05:20:54;;;;;;;3.65;3.35;;;;;;;15.70;74.16;99882.75;5013759;28;20293;-78
2022/06/14 05:23:27;;;;;;;4.57;3.35;;;;;;;15.87;73.30;99886.06;5022523;28;20190;-79
2022/06/14 05:26:02;;;;;;;10.80;3.40;;;;;;;15.65;73.41;99887.66;5017509;28;20323;-79
2022/06/14 05:28:52;;;;;;;3.80;3.50;;;;;;;15.87;72.63;99884.22;5034576;28;20324;-77
2022/06/14 05:31:28;;;;;;;6.18;3.60;;;;;;;16.19;71.00;99878.19;5035297;28;20186;-77
2022/06/14 05:34:03;;;;;;;4.20;3.60;;;;;;;16.42;69.43;99877.28;5034171;28;20604;-77
2022/06/14 05:36:36;;;;;;;7.45;4.22;;;;;;;16.66;68.14;99876.31;5033502;28;20540;-79
2022/06/14 05:39:09;;;;;;;3.60;3.25;;;;;;;16.63;67.52;99874.72;5034625;28;20228;-79
2022/06/14 05:41:41;;;;;;;7.30;4.45;;;;;;;17.04;65.99;99886.03;5024118;28;20297;-79
2022/06/14 05:44:11;;;;;;;5.82;3.65;;;;;;;17.13;65.04;99889.88;5034517;28;20282;-78
2022/06/14 05:46:45;;;;;;;5.55;3.30;;;;;;;16.82;66.11;99890.50;5032718;28;20206;-79
2022/06/14 05:49:18;;;;;;;8.35;4.35;;;;;;;16.84;66.97;99888.47;5033214;28;20190;-79
2022/06/14 05:51:50;;;;;;;4.80;3.67;;;;;;;16.71;67.20;99886.84;5032275;28;20251;-80
2022/06/14 05:54:22;;;;;;;6.25;3.53;;;;;;;16.42;68.57;99885.44;5032209;28;20277;-78
2022/06/14 05:56:56;;;;;;;8.43;3.50;;;;;;;16.22;70.14;99880.69;5031634;28;20285;-78
2022/06/14 05:59:32;;;;;;;5.78;3.65;;;;;;;16.55;68.89;99879.03;5031452;28;20181;-78
2022/06/14 06:02:09;;;;;;;5.25;3.80;;;;;;;16.43;68.94;99878.13;5031764;28;20196;-79
2022/06/14 06:04:43;;;;;;;8.20;3.85;;;;;;;16.39;69.53;99873.91;5031609;28;20296;-78
2022/06/14 06:07:13;;;;;;;6.47;3.83;;;;;;;16.49;69.03;99883.09;5031573;28;20205;-77
2022/06/14 06:09:44;;;;;;;11.00;3.95;;;;;;;16.88;66.90;99873.66;5032149;28;20281;-79
2022/06/14 06:12:16;;;;;;;4.40;3.88;;;;;;;16.94;66.32;99866.88;5031813;28;20217;-77
2022/06/14 06:14:47;;;;;;;5.47;2.95;;;;;;;16.88;65.74;99870.94;5031979;28;20186;-79
2022/06/14 06:17:18;;;;;;;5.35;3.58;;;;;;;17.13;65.57;99868.97;5032141;28;20703;-79
2022/06/14 06:19:55;;;;;;;7.43;3.58;;;;;;;17.20;65.40;99862.03;5031529;28;20269;-78
2022/06/14 06:22:27;;;;;;;4.75;3.00;;;;;;;17.19;64.43;99865.75;5031830;28;20273;-79
2022/06/14 06:24:58;;;;;;;4.65;3.38;;;;;;;17.22;64.02;99865.50;5031406;28;20274;-78
2022/06/14 06:27:28;;;;;;;3.75;2.90;;;;;;;17.41;63.73;99870.31;5031416;28;20233;-79
2022/06/14 06:30:01;;;;;;;6.43;3.20;;;;;;;17.55;62.96;99865.56;5031636;28;20268;-79
2022/06/14 06:32:31;;;;;;;4.50;3.20;;;;;;;17.69;61.49;99857.97;5031067;28;20642;-79
2022/06/14 06:35:01;;;;;;;6.85;3.10;;;;;;;17.77;61.14;99864.63;5031816;28;20525;-79
2022/06/14 06:37:37;;;;;;;5.07;3.13;;;;;;;17.87;61.23;99862.91;5031624;28;20272;-78
2022/06/14 06:40:07;;;;;;;5.57;2.90;;;;;;;18.11;60.02;99862.66;5031079;28;20187;-79
2022/06/14 06:42:40;;;;;;;5.85;3.20;;;;;;;18.41;59.05;99858.31;5031845;28;20194;-78
2022/06/14 06:45:09;;;;;;;8.30;3.33;;;;;;;18.63;57.97;99857.28;5031430;28;20544;-78
2022/06/14 06:47:42;;;;;;;6.30;2.80;;;;;;;18.79;57.05;99857.72;5031323;28;20291;-78
2022/06/14 06:50:21;;;;;;;3.90;3.15;;;;;;;18.85;57.46;99854.44;5031413;28;20202;-78
2022/06/14 06:52:57;;;;;;;3.45;3.00;;;;;;;18.71;57.25;99860.22;5031561;28;20215;-79
2022/06/14 06:55:34;;;;;;;5.00;3.10;;;;;;;18.78;57.36;99866.03;5031631;28;20193;-77
2022/06/14 06:58:02;;;;;;;3.97;2.63;;;;;;;18.75;56.91;99862.53;5031524;28;20189;-77
2022/06/14 07:00:31;;;;;;;6.20;3.72;;;;;;;18.62;57.33;99863.75;5031600;28;20620;-79
2022/06/14 07:03:05;;;;;;;3.42;2.40;;;;;;;18.64;57.27;99859.03;5031407;28;20205;-78
2022/06/14 07:05:31;;;;;;;2.75;2.33;;;;;;;18.92;55.61;99858.34;5031186;28;20191;-79
2022/06/14 07:08:02;;;;;;;3.13;2.30;;;;;;;18.83;56.53;99852.84;5031458;28;20215;-78
2022/06/14 07:10:37;;;;;;;5.35;2.53;;;;;;;18.93;55.98;99848.31;5031761;28;20228;-78
2022/06/14 07:13:17;;;;;;;5.82;2.60;;;;;;;19.02;55.11;99852.94;5031451;28;20581;-77
2022/06/14 07:15:50;;;;;;;3.75;2.97;;;;;;;19.48;53.06;99847.91;5031343;28;20185;-79
2022/06/14 07:18:24;;;;;;;6.40;2.60;;;;;;;19.44;54.00;99846.47;5031305;28;20271;-77
2022/06/14 07:20:57;;;;;;;3.35;2.50;;;;;;;19.57;53.14;99852.53;5031446;28;20276;-78
2022/06/14 07:23:38;;;;;;;4.30;3.00;;;;;;;20.05;52.44;99846.28;5031219;28;20229;-77
2022/06/14 07:26:12;;;;;;;5.75;3.10;;;;;;;20.14;52.35;99856.34;5030672;28;20209;-78
2022/06/14 07:28:49;;;;;;;5.72;2.63;;;;;;;20.12;52.08;99846.56;5030899;28;20328;-79
2022/06/14 07:31:22;;;;;;;6.05;2.40;;;;;;;19.75;52.50;99850.88;5031071;28;20608;-79
2022/06/14 07:33:51;;;;;;;5.25;2.58;;;;;;;20.15;52.01;99855.34;5031374;28;20182;-79
2022/06/14 07:36:25;;;;;;;5.10;2.20;;;;;;;20.29;50.48;99854.03;5033591;28;20178;-78
2022/06/14 07:38:59;;;;;;;4.03;3.37;;;;;;;20.31;50.25;99851.19;5034751;28;20805;-77
2022/06/14 07:41:36;;;;;;;8.40;3.60;;;;;;;20.06;51.17;99858.06;5034402;28;20518;-79
2022/06/14 07:44:13;;;;;;;3.17;2.58;;;;;;;20.15;50.75;99852.63;5034502;28;20519;-79
2022/06/14 07:46:51;;;;;;;5.53;3.40;;;;;;;20.79;48.98;99844.75;5034800;28;20217;-79
2022/06/14 07:49:24;;;;;;;4.10;2.50;;;;;;;21.24;47.46;99841.25;5034712;28;20526;-78
2022/06/14 07:51:55;;;;;;;3.27;2.53;;;;;;;20.80;48.51;99835.53;5034800;28;20760;-79
2022/06/14 07:54:28;;;;;;;5.53;4.00;;;;;;;20.57;49.80;99841.34;5034327;28;20451;-78
2022/06/14 07:57:09;;;;;;;6.30;4.17;;;;;;;20.83;49.13;99838.00;5034546;28;20523;-78
2022/06/14 07:59:41;;;;;;;5.87;2.60;;;;;;;20.92;48.65;99839.81;5034797;28;20438;-79
2022/06/14 08:02:16;;;;;;;4.50;3.13;;;;;;;21.29;47.85;99841.66;5034019;28;20455;-78
2022/06/14 08:04:48;;;;;;;6.50;3.00;;;;;;;21.46;47.41;99834.56;5034615;28;20463;-79
2022/06/14 08:07:18;;;;;;;5.53;2.80;;;;;;;21.23;48.36;99825.84;5034282;28;20473;-80
2022/06/14 08:09:50;;;;;;;5.17;3.17;;;;;;;21.61;47.17;99827.50;5035388;28;20464;-77
2022/06/14 08:12:25;;;;;;;6.43;3.20;;;;;;;21.71;47.08;99813.75;5034325;28;20512;-78
2022/06/14 08:14:56;;;;;;;6.73;2.70;;;;;;;21.80;46.56;99831.16;5034390;28;20421;-78
2022/06/14 08:17:29;;;;;;;2.73;2.20;;;;;;;21.89;46.26;99821.09;5034359;28;20421;-79
2022/06/14 08:20:02;;;;;;;6.90;3.00;;;;;;;22.31;45.89;99824.09;5033952;28;20515;-79
2022/06/14 08:22:37;;;;;;;5.60;2.90;;;;;;;22.38;45.03;99821.56;5033884;28;20937;-80
2022/06/14 08:25:11;;;;;;;5.40;2.70;;;;;;;22.43;44.89;99814.59;5034030;28;20443;-78
2022/06/14 08:27:43;;;;;;;4.57;3.33;;;;;;;22.79;44.51;99816.34;5033247;28;20492;-78
2022/06/14 08:30:14;;;;;;;6.07;3.00;;;;;;;22.39;45.26;99818.69;5033947;28;20435;-78
2022/06/14 08:32:45;;;;;;;4.73;2.90;;;;;;;22.42;45.21;99812.00;5033792;28;20512;-77
2022/06/14 08:35:18;;;;;;;4.60;2.90;;;;;;;22.56;45.00;99811.41;5033379;28;20449;-77
2022/06/14 08:37:51;;;;;;;5.63;3.70;;;;;;;22.74;45.28;99807.75;5033484;28;20519;-77
2022/06/14 08:40:31;;;;;;;4.53;2.67;;;;;;;22.87;44.93;99798.03;5033722;28;20927;-78
2022/06/14 08:43:02;;;;;;;5.23;3.20;;;;;;;22.75;45.36;99806.72;5033567;28;20424;-79
2022/06/14 08:45:39;;;;;;;5.53;3.97;;;;;;;22.46;45.26;99805.19;5033197;28;20520;-78
2022/06/14 08:48:12;;;;;;;5.53;3.23;;;;;;;22.96;44.40;99809.94;5032795;28;20471;-78
2022/06/14 08:51:12;;;;;;;9.27;3.33;;;;;;;23.01;44.40;99796.59;5033463;28;20893;-78
2022/06/14 08:54:14;;;;;;;6.00;3.23;;;;;;;23.06;44.11;99807.09;5033409;28;20479;-77
2022/06/14 08:57:02;;;;;;;8.97;3.30;;;;;;;23.31;43.33;99805.28;5033504;28;20467;-79
2022/06/14 09:00:04;;;;;;;3.93;2.90;;;;;;;23.21;43.63;99807.34;5033266;28;20907;-79
2022/06/14 09:03:06;;;;;;;4.70;3.53;;;;;;;23.21;43.43;99801.84;5033639;28;20538;-79
2022/06/14 09:05:53;;;;;;;9.47;3.43;;;;;;;23.42;42.79;99801.38;5032888;28;20475;-79
2022/06/14 09:08:50;;;;;;;7.70;3.60;;;;;;;22.80;44.29;99796.13;5032872;28;20428;-79
2022/06/14 09:11:47;;;;;;;9.97;4.10;;;;;;;22.71;44.90;99797.09;5030436;28;20539;-79
2022/06/14 09:15:01;;;;;;;5.27;3.43;;;;;;;23.01;43.93;99788.34;5033344;28;20436;-78
2022/06/14 09:17:49;;;;;;;5.53;4.47;;;;;;;23.23;42.93;99784.16;5033218;28;20954;-79
2022/06/14 09:20:30;;;;;;;5.40;3.70;;;;;;;23.59;41.97;99781.19;5032575;28;20444;-78
2022/06/14 09:23:15;;;;;;;5.93;3.87;;;;;;;23.83;41.43;99774.84;5032647;28;20431;-78
2022/06/14 09:25:59;;;;;;;8.60;4.20;;;;;;;23.94;40.02;99777.28;5032892;28;20421;-79
2022/06/14 09:28:47;;;;;;;6.57;4.07;;;;;;;23.09;41.12;99771.06;5032334;28;20601;-78
2022/06/14 09:31:38;;;;;;;6.40;3.60;;;;;;;23.20;41.36;99773.53;5033032;28;20864;-79
2022/06/14 09:34:34;;;;;;;5.57;4.83;;;;;;;23.62;40.76;99771.72;5032451;28;20516;-78
2022/06/14 09:37:32;;;;;;;5.13;3.73;;;;;;;23.91;40.57;99771.28;5032558;28;20974;-78
2022/06/14 09:40:30;;;;;;;5.40;3.73;;;;;;;24.18;39.94;99774.72;5032892;28;20883;-78
2022/06/14 09:43:45;;;;;;;13.30;6.10;;;;;;;24.45;37.95;99771.59;5032382;28;20476;-77
2022/06/14 09:46:45;;;;;;;10.20;3.83;;;;;;;24.12;38.52;99771.59;4951849;29;20566;-78
2022/06/14 09:49:56;;;;;;;6.47;4.07;;;;;;;24.32;37.50;99761.09;5032333;28;20843;-79
2022/06/14 09:52:57;;;;;;;8.23;5.17;;;;;;;24.29;38.61;99755.09;4951979;29;20850;-79
2022/06/14 09:56:07;;;;;;;8.00;3.23;;;;;;;24.52;38.24;99756.13;4952034;29;20877;-79
2022/06/14 09:59:12;;;;;;;6.53;4.20;;;;;;;24.50;37.99;99743.56;4968846;28;20480;-79
2022/06/14 10:01:50;;;;;;;8.77;4.30;;;;;;;24.43;36.75;99740.63;5032405;28;20435;-79
2022/06/14 10:04:35;;;;;;;4.67;3.27;;;;;;;24.31;36.65;99750.28;5031958;28;20439;-78
2022/06/14 10:07:49;;;;;;;4.60;3.50;;;;;;;24.44;36.71;99744.22;5031704;28;20552;-77
2022/06/14 10:10:31;;;;;;;5.83;3.83;;;;;;;24.33;37.29;99750.94;4970934;28;20446;-79
2022/06/14 10:13:28;;;;;;;4.07;3.10;;;;;;;24.22;36.41;99734.81;4971032;28;20526;-78
2022/06/14 10:16:01;;;;;;;4.23;3.07;;;;;;;23.92;37.08;99735.38;5009893;28;20539;-78
2022/06/14 10:18:53;;;;;;;5.00;3.07;;;;;;;24.24;36.84;99736.38;5032097;28;20520;-78
2022/06/14 10:21:26;;;;;;;7.17;3.67;;;;;;;24.39;37.18;99728.25;5031049;28;20992;-78
2022/06/14 10:24:05;;;;;;;11.00;4.00;;;;;;;24.46;37.55;99725.66;5032026;28;20425;-79
2022/06/14 10:29:49;;;;;;;4.13;3.57;;;;;;;24.75;36.14;99727.84;5031850;28;20431;-78
2022/06/14 10:32:44;;;;;;;6.90;3.03;;;;;;;24.81;36.58;99729.03;5032104;28;20468;-78
2022/06/14 10:35:18;;;;;;;6.97;3.37;;;;;;;24.21;35.56;99728.44;5031606;28;20523;-78
2022/06/14 10:38:06;;;;;;;5.67;2.80;;;;;;;24.08;35.80;99723.50;5032425;28;20583;-78
2022/06/14 10:40:55;;;;;;;5.57;3.10;;;;;;;24.34;36.17;99714.16;5032030;28;21096;-78
2022/06/14 10:43:32;;;;;;;3.43;3.10;;;;;;;24.35;36.50;99722.25;5031847;28;20447;-78
2022/06/14 10:46:02;;;;;;;5.37;4.10;;;;;;;24.55;36.57;99719.13;5030896;28;20461;-79
2022/06/14 10:48:57;;;;;;;8.23;3.77;;;;;;;24.82;36.63;99723.31;5031306;28;20548;-78
2022/06/14 10:51:36;;;;;;;5.13;4.10;;;;;;;24.88;36.69;99717.13;5032120;28;20994;-80
2022/06/14 10:54:12;;;;;;;7.07;4.20;;;;;;;24.73;38.47;99717.00;5031326;28;20413;-78
2022/06/14 10:57:05;;;;;;;7.43;4.60;;;;;;;24.52;38.77;99709.31;5031744;28;20436;-77
2022/06/14 10:59:44;;;;;;;3.80;3.00;;;;;;;24.73;38.42;99703.22;5031353;28;20427;-78
2022/06/14 11:02:21;;;;;;;4.50;3.63;;;;;;;24.46;39.00;99706.38;5030950;28;20519;-78
2022/06/14 11:04:55;;;;;;;5.90;3.27;;;;;;;24.49;37.69;99703.31;5031049;28;20874;-78
2022/06/14 11:07:50;;;;;;;6.50;4.50;;;;;;;24.69;38.25;99693.63;5031372;28;20468;-79
2022/06/14 11:10:36;;;;;;;7.47;3.93;;;;;;;24.68;38.43;99691.91;5032235;28;20919;-78
2022/06/14 11:13:15;;;;;;;6.47;3.83;;;;;;;24.31;38.38;99696.13;5026319;28;20504;-78
2022/06/14 11:15:49;;;;;;;5.33;3.90;;;;;;;24.73;37.66;99691.34;5035302;28;20918;-79
2022/06/14 11:18:50;;;;;;;3.80;3.37;;;;;;;24.50;38.16;99689.38;5015783;28;20430;-77
2022/06/14 11:21:31;;;;;;;4.83;3.00;;;;;;;24.71;37.81;99686.03;5015860;28;20436;-80
2022/06/14 11:24:05;;;;;;;10.23;6.97;;;;;;;24.87;36.16;99682.34;5015713;28;20425;-78
2022/06/14 11:26:41;;;;;;;3.77;3.30;;;;;;;24.97;36.88;99669.22;5015317;28;20452;-77
2022/06/14 11:29:16;;;;;;;5.50;3.80;;;;;;;24.93;36.58;99673.34;5024698;28;20962;-79
2022/06/14 11:31:48;;;;;;;6.47;3.80;;;;;;;24.99;36.02;99671.78;5035125;28;20903;-81
2022/06/14 11:34:34;;;;;;;6.10;3.60;;;;;;;24.61;36.62;99676.28;5035134;28;20451;-78
2022/06/14 11:37:48;;;;;;;4.43;3.33;;;;;;;24.95;36.55;99673.19;5034569;28;20517;-79
2022/06/14 11:40:20;;;;;;;5.20;3.57;;;;;;;24.95;36.50;99676.78;4990166;28;20448;-78
2022/06/14 11:43:02;;;;;;;4.60;3.63;;;;;;;25.27;35.99;99665.78;5033934;28;20555;-78
2022/06/14 11:45:42;;;;;;;6.80;3.47;;;;;;;25.22;36.14;99660.00;5025943;28;20429;-80
2022/06/14 11:48:17;;;;;;;5.60;3.27;;;;;;;25.26;36.28;99662.19;5014456;28;20505;-79
2022/06/14 11:50:52;;;;;;;7.17;5.37;;;;;;;25.43;36.23;99653.81;5014995;28;20796;-78
2022/06/14 11:53:45;;;;;;;3.83;3.10;;;;;;;24.93;36.70;99654.09;5015194;28;20907;-78
2022/06/14 11:56:22;;;;;;;4.90;3.30;;;;;;;25.16;36.30;99650.50;5015190;28;20430;-77
2022/06/14 11:59:11;;;;;;;7.83;3.90;;;;;;;25.34;36.01;99636.47;5026897;28;20447;-78
2022/06/14 12:01:51;;;;;;;6.07;3.77;;;;;;;25.16;36.40;99643.09;5034516;28;20433;-78
2022/06/14 12:04:37;;;;;;;7.50;4.33;;;;;;;24.86;36.58;99639.31;5034045;28;20435;-78
2022/06/14 12:07:17;;;;;;;4.50;3.47;;;;;;;25.46;34.66;99634.13;5014513;28;20469;-78
2022/06/14 12:10:07;;;;;;;4.33;3.33;;;;;;;25.56;33.81;99641.09;5014888;28;20860;-79
2022/06/14 12:12:49;;;;;;;3.83;3.10;;;;;;;25.68;33.99;99633.25;5014846;28;20930;-79
2022/06/14 12:15:22;;;;;;;4.43;3.03;;;;;;;25.35;34.04;99636.28;5014709;28;20505;-78
2022/06/14 12:17:52;;;;;;;4.93;2.57;;;;;;;25.81;32.65;99635.38;5014614;28;20429;-79
2022/06/14 12:20:21;;;;;;;5.03;3.07;;;;;;;25.93;33.01;99622.88;5015118;28;20800;-79
2022/06/14 12:22:59;;;;;;;4.23;3.83;;;;;;;26.23;33.77;99622.03;5014781;28;20477;-79
2022/06/14 12:28:23;;;;;;;4.40;3.10;;;;;;;26.21;33.85;99617.56;5014200;28;20499;-78
2022/06/14 12:30:52;;;;;;;4.17;3.30;;;;;;;25.99;33.51;99616.59;5014586;28;20988;-78